Terminal Aerodrome Forecast
Issued by NWS Blacksburg, VA

Current Version | Previous Version | Graphics & Text | Print | Product List | Glossary On
Versions: 1 2 3 4 5 6 7 8 9 10 11 12 13 14 15 16 17 18 19 20 21 22 23 24 25 26 27 28 29 30 31 32 33 34
000
FTUS41 KRNK 031124
TAFBLF
TAF
KBLF 031124Z 0312/0412 31007KT P6SM OVC017
     FM032000 32003KT P6SM SCT035 BKN250
     FM040700 00000KT P6SM OVC090=

USA.gov is the U.S. government's official web portal to all federal, state and local government web resources and services.